createdAt,value
2023-02-26T00:01:48.212Z,101003.72
2023-02-26T00:04:16.642Z,101010.16
2023-02-26T00:06:55.528Z,101015.75
2023-02-26T00:09:26.202Z,101008.06
2023-02-26T00:11:55.211Z,101021.69
2023-02-26T00:14:23.950Z,101018.44
2023-02-26T00:17:16.336Z,101025.72
2023-02-26T00:19:44.857Z,101022.53
2023-02-26T00:22:14.787Z,101034.28
2023-02-26T00:24:43.235Z,101027.38
2023-02-26T00:27:13.442Z,101024.88
2023-02-26T00:29:42.014Z,101022.41
2023-02-26T00:32:11.451Z,101029.56
2023-02-26T00:34:41.357Z,101031.50
2023-02-26T00:37:33.183Z,101041.56
2023-02-26T00:40:31.073Z,101043.25
2023-02-26T00:42:59.568Z,101046.94
2023-02-26T00:45:28.129Z,101044.50
2023-02-26T00:48:28.669Z,101049.97
2023-02-26T00:51:19.943Z,101049.06
2023-02-26T00:53:57.966Z,101042.09
2023-02-26T00:56:26.461Z,101050.16
2023-02-26T00:58:54.814Z,101058.16
2023-02-26T01:01:23.079Z,101056.53
2023-02-26T01:03:51.611Z,101057.50
2023-02-26T01:06:22.993Z,101069.94
2023-02-26T01:09:06.537Z,101064.63
2023-02-26T01:11:37.333Z,101077.84
2023-02-26T01:14:06.719Z,101081.47
2023-02-26T01:17:08.519Z,101087.78
2023-02-26T01:19:50.370Z,101079.88
2023-02-26T01:22:32.640Z,101089.66
2023-02-26T01:25:12.664Z,101089.66
2023-02-26T01:27:42.062Z,101085.44
2023-02-26T01:30:11.048Z,101086.47
2023-02-26T01:32:56.645Z,101084.84
2023-02-26T01:35:37.177Z,101085.91
2023-02-26T01:38:10.500Z,101091.34
2023-02-26T01:41:04.305Z,101098.63
2023-02-26T01:43:50.866Z,101089.94
2023-02-26T01:46:41.131Z,101090.84
2023-02-26T01:49:16.097Z,101092.59
2023-02-26T01:51:51.266Z,101095.44
2023-02-26T01:54:44.291Z,101092.00
2023-02-26T01:57:16.709Z,101088.53
2023-02-26T01:59:51.242Z,101083.28
2023-02-26T02:02:23.874Z,101091.16
2023-02-26T02:04:52.517Z,101081.47
2023-02-26T02:07:21.541Z,101088.44
2023-02-26T02:09:50.173Z,101077.81
2023-02-26T02:12:42.960Z,101069.97
2023-02-26T02:15:40.194Z,101057.72
2023-02-26T02:18:28.791Z,101066.69
2023-02-26T02:21:55.676Z,101077.28
2023-02-26T02:25:14.670Z,101082.56
2023-02-26T02:28:15.080Z,101091.44
2023-02-26T02:31:36.729Z,101091.44
2023-02-26T02:34:37.079Z,101089.66
2023-02-26T02:37:08.313Z,101080.78
2023-02-26T02:39:44.681Z,101094.03
2023-02-26T02:42:15.674Z,101098.50
2023-02-26T02:44:50.780Z,101098.50
2023-02-26T02:47:22.398Z,101101.19
2023-02-26T02:50:03.920Z,101109.16
2023-02-26T02:52:55.831Z,101117.13
2023-02-26T02:55:33.633Z,101122.44
2023-02-26T02:58:09.449Z,101135.72
2023-02-26T03:00:48.305Z,101143.75
2023-02-26T03:03:48.119Z,101144.69
2023-02-26T03:06:16.618Z,101159.69
2023-02-26T03:08:50.020Z,101164.16
2023-02-26T03:11:18.271Z,101154.47
2023-02-26T03:13:48.420Z,101157.06
2023-02-26T03:16:54.963Z,101148.25
2023-02-26T03:19:51.548Z,101158.00
2023-02-26T03:22:44.504Z,101168.63
2023-02-26T03:25:24.408Z,101163.34
2023-02-26T03:28:16.505Z,101172.09
2023-02-26T03:31:07.223Z,101172.91
2023-02-26T03:33:47.307Z,101179.06
2023-02-26T03:36:38.763Z,101185.22
2023-02-26T03:39:31.322Z,101184.31
2023-02-26T03:42:10.959Z,101186.06
2023-02-26T03:44:45.444Z,101197.59
2023-02-26T03:47:16.893Z,101203.81
2023-02-26T03:49:56.556Z,101211.78
2023-02-26T03:52:28.150Z,101211.78
2023-02-26T03:55:11.773Z,101208.41
2023-02-26T03:57:40.660Z,101211.09
2023-02-26T04:00:11.308Z,101213.81
2023-02-26T04:02:56.858Z,101211.22
2023-02-26T04:05:35.029Z,101227.06
2023-02-26T04:08:03.962Z,101245.56
2023-02-26T04:10:55.999Z,101247.31
2023-02-26T04:13:24.290Z,101248.22
2023-02-26T04:15:52.637Z,101252.56
2023-02-26T04:18:21.343Z,101257.84
2023-02-26T04:20:50.652Z,101267.63
2023-02-26T04:23:20.300Z,101271.19
2023-02-26T04:25:48.572Z,101276.41
2023-02-26T04:28:17.020Z,101288.72
2023-02-26T04:30:45.793Z,101294.03
2023-02-26T04:33:15.060Z,101287.84
2023-02-26T04:35:43.792Z,101285.31
2023-02-26T04:38:12.066Z,101286.38
2023-02-26T04:40:40.296Z,101275.00
2023-02-26T04:43:08.578Z,101272.44
2023-02-26T04:45:36.860Z,101285.66
2023-02-26T04:48:05.154Z,101288.28
2023-02-26T04:50:33.427Z,101294.50
2023-02-26T04:53:01.647Z,101296.25
2023-02-26T04:55:29.911Z,101288.34
2023-02-26T04:57:58.116Z,101283.03
2023-02-26T05:00:26.677Z,101284.78
2023-02-26T05:02:55.175Z,101282.19
2023-02-26T05:05:23.467Z,101280.41
2023-02-26T05:07:54.611Z,101274.22
2023-02-26T05:10:24.032Z,101275.94
2023-02-26T05:12:52.396Z,101278.66
2023-02-26T05:15:20.989Z,101276.06
2023-02-26T05:17:49.522Z,101283.97
2023-02-26T05:20:18.041Z,101286.56
2023-02-26T05:22:46.316Z,101291.84
2023-02-26T05:25:14.868Z,101297.16
2023-02-26T05:27:43.593Z,101296.38
2023-02-26T05:30:15.341Z,101299.03
2023-02-26T05:32:44.209Z,101307.00
2023-02-26T05:35:13.045Z,101313.19
2023-02-26T05:37:41.506Z,101315.88
2023-02-26T05:40:11.831Z,101312.25
2023-02-26T05:42:41.080Z,101324.47
2023-02-26T05:45:09.603Z,101331.44
2023-02-26T05:47:38.414Z,101335.81
2023-02-26T05:50:08.116Z,101327.84
2023-02-26T05:52:36.531Z,101322.53
2023-02-26T05:55:05.569Z,101322.53
2023-02-26T05:57:33.813Z,101323.38
2023-02-26T06:00:02.024Z,101326.06
2023-02-26T06:02:30.287Z,101327.81
2023-02-26T06:04:58.481Z,101331.34
2023-02-26T06:07:26.719Z,101335.78
2023-02-26T06:09:54.943Z,101336.72
2023-02-26T06:12:23.165Z,101340.25
2023-02-26T06:14:51.504Z,101338.53
2023-02-26T06:17:19.694Z,101336.75
2023-02-26T06:19:47.949Z,101331.47
2023-02-26T06:22:16.189Z,101330.63
2023-02-26T06:24:44.680Z,101328.06
2023-02-26T06:27:13.027Z,101328.91
2023-02-26T06:29:41.610Z,101327.13
2023-02-26T06:32:10.061Z,101332.44
2023-02-26T06:34:38.363Z,101323.59
2023-02-26T06:37:06.975Z,101326.22
2023-02-26T06:39:36.032Z,101332.34
2023-02-26T06:42:04.256Z,101331.41
2023-02-26T06:44:32.717Z,101319.09
2023-02-26T06:47:01.028Z,101326.09
2023-02-26T06:49:29.259Z,101321.66
2023-02-26T06:51:57.625Z,101322.53
2023-02-26T06:54:25.864Z,101329.53
2023-02-26T06:56:58.456Z,101327.75
2023-02-26T06:59:26.721Z,101324.25
2023-02-26T07:01:54.936Z,101331.31
2023-02-26T07:04:23.164Z,101332.22
2023-02-26T07:06:51.468Z,101334.00
2023-02-26T07:09:22.483Z,101337.50
2023-02-26T07:11:50.845Z,101347.22
2023-02-26T07:14:19.129Z,101348.97
2023-02-26T07:16:47.613Z,101349.84
2023-02-26T07:19:16.278Z,101348.97
2023-02-26T07:21:44.556Z,101347.25
2023-02-26T07:24:12.774Z,101349.91
2023-02-26T07:26:41.052Z,101345.50
2023-02-26T07:29:09.583Z,101340.22
2023-02-26T07:31:38.001Z,101345.53
2023-02-26T07:34:06.342Z,101344.63
2023-02-26T07:36:34.558Z,101348.16
2023-02-26T07:39:02.762Z,101342.00
2023-02-26T07:41:30.960Z,101337.56
2023-02-26T07:43:59.238Z,101336.69
2023-02-26T07:46:27.819Z,101325.25
2023-02-26T07:48:56.274Z,101327.91
2023-02-26T07:51:25.025Z,101329.66
2023-02-26T07:53:53.434Z,101324.38
2023-02-26T07:56:21.645Z,101321.69
2023-02-26T07:58:50.248Z,101319.06
2023-02-26T08:01:18.495Z,101318.22
2023-02-26T08:03:46.740Z,101325.25
2023-02-26T08:06:15.186Z,101330.56
2023-02-26T08:08:44.157Z,101333.13
2023-02-26T08:11:12.419Z,101334.88
2023-02-26T08:13:40.651Z,101336.66
2023-02-26T08:16:08.945Z,101336.66
2023-02-26T08:18:38.058Z,101336.66
2023-02-26T08:21:07.075Z,101337.53
2023-02-26T08:23:35.469Z,101341.94
2023-02-26T08:26:09.364Z,101343.69
2023-02-26T08:28:38.800Z,101341.00
2023-02-26T08:31:07.492Z,101346.28
2023-02-26T08:33:35.814Z,101341.03
2023-02-26T08:36:04.047Z,101343.69
2023-02-26T08:38:33.036Z,101341.13
2023-02-26T08:41:01.891Z,101339.34
2023-02-26T08:43:30.789Z,101347.28
2023-02-26T08:46:00.212Z,101338.50
2023-02-26T08:48:28.476Z,101349.94
2023-02-26T08:50:56.710Z,101349.97
2023-02-26T08:53:25.141Z,101357.94
2023-02-26T08:55:54.509Z,101359.75
2023-02-26T08:58:22.940Z,101356.28
2023-02-26T09:00:51.763Z,101352.81
2023-02-26T09:03:20.007Z,101360.81
2023-02-26T09:05:48.335Z,101365.25
2023-02-26T09:08:16.908Z,101373.19
2023-02-26T09:10:45.652Z,101378.50
2023-02-26T09:13:14.132Z,101370.63
2023-02-26T09:15:42.912Z,101375.06
2023-02-26T09:18:16.205Z,101372.41
2023-02-26T09:20:45.991Z,101376.88
2023-02-26T09:23:14.447Z,101379.50
2023-02-26T09:25:42.646Z,101377.72
2023-02-26T09:28:10.968Z,101369.84
2023-02-26T09:30:39.252Z,101369.88
2023-02-26T09:33:07.532Z,101368.13
2023-02-26T09:35:35.743Z,101363.69
2023-02-26T09:38:04.925Z,101357.56
2023-02-26T09:41:18.478Z,101361.06
2023-02-26T09:44:01.478Z,101366.38
2023-02-26T09:46:56.491Z,101360.25
2023-02-26T09:49:34.209Z,101367.28
2023-02-26T09:52:14.333Z,101362.03
2023-02-26T09:54:48.136Z,101366.47
2023-02-26T09:57:45.035Z,101361.22
2023-02-26T10:00:43.506Z,101355.94
2023-02-26T10:03:49.307Z,101362.16
2023-02-26T10:06:26.434Z,101355.13
2023-02-26T10:09:34.533Z,101348.03
2023-02-26T10:12:18.259Z,101351.53
2023-02-26T10:15:02.867Z,101340.97
2023-02-26T10:18:15.719Z,101346.25
2023-02-26T10:21:04.939Z,101350.63
2023-02-26T10:23:44.692Z,101367.31
2023-02-26T10:26:26.400Z,101369.06
2023-02-26T10:29:34.680Z,101367.34
2023-02-26T10:32:30.623Z,101371.72
2023-02-26T10:35:09.993Z,101377.88
2023-02-26T10:37:57.955Z,101377.88
2023-02-26T10:40:38.527Z,101373.53
2023-02-26T10:43:30.932Z,101386.69
2023-02-26T10:46:43.469Z,101387.53
2023-02-26T10:49:48.933Z,101388.44
2023-02-26T10:52:20.997Z,101389.31
2023-02-26T10:55:25.245Z,101382.28
2023-02-26T10:58:17.329Z,101376.19
2023-02-26T11:00:48.389Z,101377.16
2023-02-26T11:03:23.588Z,101379.81
2023-02-26T11:05:51.878Z,101375.38
2023-02-26T11:08:33.404Z,101386.81
2023-02-26T11:11:05.445Z,101393.84
2023-02-26T11:13:36.116Z,101393.00
2023-02-26T11:16:10.343Z,101401.78
2023-02-26T11:18:45.255Z,101399.16
2023-02-26T11:21:29.758Z,101392.97
2023-02-26T11:24:06.298Z,101385.88
2023-02-26T11:26:37.873Z,101388.53
2023-02-26T11:29:07.321Z,101395.56
2023-02-26T11:31:35.544Z,101390.28
2023-02-26T11:34:05.890Z,101387.63
2023-02-26T11:36:38.379Z,101390.25
2023-02-26T11:39:16.538Z,101393.78
2023-02-26T11:41:47.936Z,101395.50
2023-02-26T11:44:35.662Z,101391.09
2023-02-26T11:47:14.902Z,101391.09
2023-02-26T11:49:47.053Z,101394.59
2023-02-26T11:52:33.731Z,101385.81
2023-02-26T11:55:05.101Z,101383.16
2023-02-26T11:57:34.941Z,101385.84
2023-02-26T12:00:25.808Z,101388.50
2023-02-26T12:03:02.938Z,101394.63
2023-02-26T12:05:32.221Z,101393.75
2023-02-26T12:08:00.551Z,101399.88
2023-02-26T12:10:49.776Z,101399.84
2023-02-26T12:13:46.096Z,101405.09
2023-02-26T12:16:15.261Z,101408.59
2023-02-26T12:18:49.485Z,101401.50
2023-02-26T12:21:48.166Z,101407.66
2023-02-26T12:24:37.700Z,101410.34
2023-02-26T12:27:20.910Z,101413.84
2023-02-26T12:30:23.113Z,101409.47
2023-02-26T12:32:58.648Z,101414.75
2023-02-26T12:35:59.069Z,101419.13
2023-02-26T12:38:37.120Z,101421.75
2023-02-26T12:41:41.480Z,101434.94
2023-02-26T12:44:22.416Z,101430.50
2023-02-26T12:47:08.021Z,101427.88
2023-02-26T12:50:08.347Z,101427.84
2023-02-26T12:52:48.334Z,101424.31
2023-02-26T12:55:40.947Z,101427.81
2023-02-26T12:58:16.647Z,101432.16
2023-02-26T13:01:21.513Z,101432.16
2023-02-26T13:04:18.393Z,101437.44
2023-02-26T13:06:59.921Z,101436.59
2023-02-26T13:10:02.451Z,101431.34
2023-02-26T13:13:41.485Z,101429.53
2023-02-26T13:16:43.387Z,101426.03
2023-02-26T13:19:30.558Z,101428.63
2023-02-26T13:22:12.869Z,101433.91
2023-02-26T13:24:46.201Z,101437.44
2023-02-26T13:27:17.584Z,101424.22
2023-02-26T13:30:15.466Z,101429.53
2023-02-26T13:32:45.660Z,101415.44
2023-02-26T13:35:39.193Z,101410.19
2023-02-26T13:38:23.068Z,101413.72
2023-02-26T13:40:54.225Z,101409.34
2023-02-26T13:43:43.584Z,101412.88
2023-02-26T13:46:41.268Z,101412.00
2023-02-26T13:49:17.992Z,101404.94
2023-02-26T13:51:49.993Z,101414.59
2023-02-26T13:54:18.184Z,101426.03
2023-02-26T13:57:26.665Z,101436.59
2023-02-26T14:00:13.998Z,101443.63
2023-02-26T14:02:46.760Z,101460.31
2023-02-26T14:05:53.416Z,101462.09
2023-02-26T14:08:42.983Z,101445.44
2023-02-26T14:11:38.646Z,101428.69
2023-02-26T14:14:27.485Z,101437.47
2023-02-26T14:17:04.589Z,101430.44
2023-02-26T14:19:45.217Z,101435.66
2023-02-26T14:22:25.097Z,101434.75
2023-02-26T14:25:00.208Z,101451.47
2023-02-26T14:27:31.059Z,101456.75
2023-02-26T14:30:11.432Z,101460.31
2023-02-26T14:33:01.101Z,101455.94
2023-02-26T14:35:41.543Z,101449.84
2023-02-26T14:38:35.169Z,101448.09
2023-02-26T14:41:09.994Z,101448.09
2023-02-26T14:43:46.100Z,101453.38
2023-02-26T14:46:14.616Z,101458.66
2023-02-26T14:48:43.563Z,101463.91
2023-02-26T14:51:25.591Z,101465.66
2023-02-26T14:54:11.612Z,101471.75
2023-02-26T14:56:49.069Z,101486.69
2023-02-26T14:59:47.573Z,101492.00
2023-02-26T15:02:33.723Z,101499.03
2023-02-26T15:05:35.541Z,101506.03
2023-02-26T15:08:24.500Z,101505.13
2023-02-26T15:11:23.790Z,101515.66
2023-02-26T15:14:27.129Z,101514.78
2023-02-26T15:16:56.059Z,101522.75
2023-02-26T15:19:33.297Z,101516.63
2023-02-26T15:22:27.114Z,101518.34
2023-02-26T15:24:55.510Z,101517.44
2023-02-26T15:27:23.917Z,101520.94
2023-02-26T15:29:53.872Z,101522.69
2023-02-26T15:32:32.659Z,101525.31
2023-02-26T15:35:17.791Z,101527.09
2023-02-26T15:38:02.003Z,101525.31
2023-02-26T15:40:40.972Z,101530.56
2023-02-26T15:43:11.261Z,101554.31
2023-02-26T15:45:40.900Z,101557.75
2023-02-26T15:48:17.957Z,101551.59
2023-02-26T15:50:50.964Z,101549.84
2023-02-26T15:53:43.477Z,101562.13
2023-02-26T15:56:25.471Z,101563.88
2023-02-26T15:58:59.392Z,101570.03
2023-02-26T16:01:29.620Z,101567.41
2023-02-26T16:04:04.377Z,101558.59
2023-02-26T16:06:36.769Z,101563.88
2023-02-26T16:09:07.821Z,101561.25
2023-02-26T16:11:43.162Z,101564.75
2023-02-26T16:14:23.822Z,101570.03
2023-02-26T16:16:55.397Z,101572.66
2023-02-26T16:19:45.885Z,101585.81
2023-02-26T16:22:38.625Z,101585.81
2023-02-26T16:25:18.075Z,101584.09
2023-02-26T16:27:53.603Z,101594.69
2023-02-26T16:30:28.104Z,101598.19
2023-02-26T16:32:56.615Z,101604.38
2023-02-26T16:35:29.161Z,101602.59
2023-02-26T16:37:57.414Z,101614.97
2023-02-26T16:40:29.295Z,101604.38
2023-02-26T16:43:06.444Z,101603.53
2023-02-26T16:45:37.682Z,101614.09
2023-02-26T16:48:13.686Z,101620.25
2023-02-26T16:50:42.161Z,101628.16
2023-02-26T16:53:21.968Z,101638.69
2023-02-26T16:55:56.840Z,101637.75
2023-02-26T16:58:26.027Z,101642.13
2023-02-26T17:01:06.896Z,101635.94
2023-02-26T17:03:36.468Z,101638.56
2023-02-26T17:06:10.355Z,101634.13
2023-02-26T17:08:54.153Z,101635.84
2023-02-26T17:11:34.654Z,101642.78
2023-02-26T17:14:14.744Z,101645.44
2023-02-26T17:16:43.175Z,101635.72
2023-02-26T17:19:11.448Z,101654.22
2023-02-26T17:21:49.088Z,101661.25
2023-02-26T17:24:31.580Z,101657.72
2023-02-26T17:27:00.998Z,101656.78
2023-02-26T17:29:39.288Z,101665.56
2023-02-26T17:32:28.614Z,101665.47
2023-02-26T17:34:56.895Z,101656.56
2023-02-26T17:37:31.164Z,101656.47
2023-02-26T17:40:00.657Z,101658.09
2023-02-26T17:42:29.005Z,101663.34
2023-02-26T17:44:58.478Z,101665.94
2023-02-26T17:47:27.912Z,101651.78
2023-02-26T17:49:56.264Z,101647.38
2023-02-26T17:52:24.521Z,101645.59
2023-02-26T17:54:52.728Z,101633.22
2023-02-26T17:57:23.335Z,101630.44
2023-02-26T17:59:51.607Z,101621.53
2023-02-26T18:02:26.160Z,101622.38
2023-02-26T18:04:55.109Z,101622.34
2023-02-26T18:07:25.673Z,101620.53
2023-02-26T18:09:53.945Z,101625.00
2023-02-26T18:12:23.621Z,101640.97
2023-02-26T18:14:52.092Z,101637.44
2023-02-26T18:17:29.347Z,101644.38
2023-02-26T18:19:57.746Z,101641.72
2023-02-26T18:22:27.413Z,101646.94
2023-02-26T18:24:56.702Z,101639.75
2023-02-26T18:27:26.309Z,101651.19
2023-02-26T18:29:55.492Z,101649.44
2023-02-26T18:32:26.029Z,101647.69
2023-02-26T18:34:54.621Z,101654.81
2023-02-26T18:37:27.342Z,101644.28
2023-02-26T18:39:56.648Z,101639.00
2023-02-26T18:42:27.859Z,101649.50
2023-02-26T18:44:57.527Z,101645.00
2023-02-26T18:47:25.796Z,101651.97
2023-02-26T18:49:54.057Z,101656.41
2023-02-26T18:52:24.364Z,101664.50
2023-02-26T18:54:52.571Z,101666.34
2023-02-26T18:57:20.789Z,101658.34
2023-02-26T18:59:49.823Z,101647.75
2023-02-26T19:02:18.229Z,101651.34
2023-02-26T19:04:47.324Z,101648.75
2023-02-26T19:07:15.630Z,101654.94
2023-02-26T19:09:44.998Z,101669.06
2023-02-26T19:12:20.407Z,101666.41
2023-02-26T19:14:50.448Z,101662.00
2023-02-26T19:17:18.806Z,101644.44
2023-02-26T19:19:47.065Z,101649.81
2023-02-26T19:22:16.200Z,101633.88
2023-02-26T19:24:45.037Z,101632.97
2023-02-26T19:27:15.061Z,101626.78
2023-02-26T19:29:44.509Z,101612.59
2023-02-26T19:32:12.872Z,101616.06
2023-02-26T19:34:41.287Z,101611.66
2023-02-26T19:37:11.518Z,101612.56
2023-02-26T19:39:40.170Z,101597.53
2023-02-26T19:42:08.424Z,101603.75
2023-02-26T19:44:36.829Z,101608.22
2023-02-26T19:47:05.113Z,101609.16
2023-02-26T19:49:33.741Z,101616.28
2023-02-26T19:52:01.988Z,101610.09
2023-02-26T19:54:31.160Z,101610.06
2023-02-26T19:56:59.450Z,101614.47
2023-02-26T19:59:27.736Z,101601.22
2023-02-26T20:01:56.075Z,101598.63
2023-02-26T20:04:24.363Z,101585.34
2023-02-26T20:06:52.688Z,101587.13
2023-02-26T20:09:21.109Z,101578.25
2023-02-26T20:11:49.864Z,101576.34
2023-02-26T20:14:19.378Z,101564.78
2023-02-26T20:16:47.672Z,101567.41
2023-02-26T20:19:16.045Z,101560.41
2023-02-26T20:21:44.719Z,101570.13
2023-02-26T20:24:13.010Z,101570.94
2023-02-26T20:26:41.255Z,101562.03
2023-02-26T20:29:09.816Z,101572.56
2023-02-26T20:31:38.200Z,101561.81
2023-02-26T20:34:07.502Z,101558.97
2023-02-26T20:36:36.063Z,101548.22
2023-02-26T20:39:04.482Z,101556.00
2023-02-26T20:41:32.767Z,101543.50
2023-02-26T20:44:00.990Z,101545.91
2023-02-26T20:46:30.672Z,101548.50
2023-02-26T20:49:00.595Z,101552.06
2023-02-26T20:51:29.229Z,101550.16
2023-02-26T20:53:57.564Z,101550.13
2023-02-26T20:56:25.905Z,101545.75
2023-02-26T20:58:54.125Z,101550.22
2023-02-26T21:01:22.362Z,101536.16
2023-02-26T21:03:50.635Z,101546.09
2023-02-26T21:06:18.835Z,101538.28
2023-02-26T21:08:47.104Z,101526.88
2023-02-26T21:11:15.332Z,101526.88
2023-02-26T21:13:45.368Z,101512.72
2023-02-26T21:16:14.618Z,101512.69
2023-02-26T21:18:42.811Z,101510.00
2023-02-26T21:21:11.139Z,101486.97
2023-02-26T21:23:39.365Z,101497.59
2023-02-26T21:26:08.144Z,101485.25
2023-02-26T21:28:36.738Z,101488.66
2023-02-26T21:31:05.669Z,101489.41
2023-02-26T21:33:34.053Z,101477.81
2023-02-26T21:36:02.280Z,101478.47
2023-02-26T21:38:30.515Z,101470.38
2023-02-26T21:40:58.720Z,101454.41
2023-02-26T21:43:27.040Z,101457.88
2023-02-26T21:45:55.262Z,101448.91
2023-02-26T21:48:23.532Z,101445.09
2023-02-26T21:50:52.884Z,101440.31
2023-02-26T21:53:21.156Z,101449.09
2023-02-26T21:55:49.473Z,101446.38
2023-02-26T21:58:17.743Z,101438.41
2023-02-26T22:00:46.331Z,101426.75
2023-02-26T22:03:14.564Z,101426.75
2023-02-26T22:05:43.059Z,101423.41
2023-02-26T22:08:11.442Z,101426.16
2023-02-26T22:10:39.765Z,101429.78
2023-02-26T22:13:08.065Z,101433.47
2023-02-26T22:15:36.336Z,101423.03
2023-02-26T22:18:04.912Z,101422.19
2023-02-26T22:20:33.157Z,101419.69
2023-02-26T22:23:01.522Z,101424.22
2023-02-26T22:25:29.744Z,101422.56
2023-02-26T22:27:58.743Z,101426.09
2023-02-26T22:30:27.050Z,101426.09
2023-02-26T22:32:55.505Z,101423.50
2023-02-26T22:35:24.241Z,101414.66
2023-02-26T22:37:52.494Z,101424.31
2023-02-26T22:40:20.919Z,101419.91
2023-02-26T22:42:49.513Z,101424.38
2023-02-26T22:45:18.823Z,101417.28
2023-02-26T22:47:49.010Z,101427.00
2023-02-26T22:50:17.585Z,101413.75
2023-02-26T22:52:46.488Z,101425.31
2023-02-26T22:55:14.865Z,101417.44
2023-02-26T22:57:43.247Z,101421.91
2023-02-26T23:00:16.729Z,101407.78
2023-02-26T23:02:45.424Z,101400.75
2023-02-26T23:05:13.893Z,101400.84
2023-02-26T23:07:42.545Z,101407.88
2023-02-26T23:10:14.578Z,101407.88
2023-02-26T23:12:44.176Z,101405.25
2023-02-26T23:15:13.149Z,101406.09
2023-02-26T23:17:43.964Z,101399.84
2023-02-26T23:20:14.648Z,101396.22
2023-02-26T23:22:45.356Z,101403.28
2023-02-26T23:25:13.640Z,101408.50
2023-02-26T23:27:42.055Z,101400.56
2023-02-26T23:30:10.937Z,101403.22
2023-02-26T23:32:39.336Z,101412.03
2023-02-26T23:35:08.076Z,101399.69
2023-02-26T23:37:36.314Z,101398.00
2023-02-26T23:40:05.011Z,101385.66
2023-02-26T23:42:33.223Z,101391.81
2023-02-26T23:45:01.592Z,101388.31
2023-02-26T23:47:29.810Z,101387.53
2023-02-26T23:49:58.123Z,101395.53
2023-02-26T23:52:26.576Z,101400.03
2023-02-26T23:54:55.501Z,101400.03
2023-02-26T23:57:23.864Z,101404.41
2023-02-26T23:59:52.400Z,101403.50
